Time;durP1;ratioP1;P1;durP2;ratioP2;P2;SDS_P1;SDS_P2;PMS_P1;PMS_P2;Temp;Humidity;BMP_temperature;BMP_pressure;BME280_temperature;BME280_humidity;BME280_pressure;Samples;Min_cycle;Max_cycle;Signal;HPM_P1;HPM_P2
2021/09/21 00:02:09;;;;;;;13.97;12.00;;;;;;;14.87;61.66;95484.81;5036340;28;20443;-69
2021/09/21 00:04:36;;;;;;;16.13;11.27;;;;;;;14.63;61.78;95484.59;5050526;28;20513;-69
2021/09/21 00:07:03;;;;;;;11.70;9.87;;;;;;;14.67;61.64;95485.63;5052592;28;20439;-68
2021/09/21 00:09:30;;;;;;;13.40;10.57;;;;;;;14.65;61.68;95486.97;5055505;28;21034;-69
2021/09/21 00:11:57;;;;;;;13.53;11.40;;;;;;;14.63;61.05;95489.88;5054747;28;20443;-70
2021/09/21 00:14:24;;;;;;;14.10;10.70;;;;;;;14.52;61.74;95487.50;5053181;28;20868;-69
2021/09/21 00:16:51;;;;;;;13.73;11.40;;;;;;;14.69;61.35;95482.75;5049946;28;20781;-70
2021/09/21 00:19:18;;;;;;;12.93;11.40;;;;;;;14.45;61.53;95466.66;5046709;28;20516;-68
2021/09/21 00:21:45;;;;;;;14.67;12.27;;;;;;;14.26;62.76;95468.22;5050764;28;20832;-69
2021/09/21 00:24:12;;;;;;;14.23;11.80;;;;;;;14.25;62.89;95467.44;5049938;28;20477;-71
2021/09/21 00:26:39;;;;;;;13.97;12.10;;;;;;;13.94;63.32;95459.78;5050303;28;20446;-68
2021/09/21 00:29:07;;;;;;;13.60;12.13;;;;;;;13.95;63.26;95472.69;5032058;28;20883;-71
2021/09/21 00:31:38;;;;;;;15.27;12.50;;;;;;;14.14;63.21;95478.25;5032151;28;20567;-70
2021/09/21 00:34:12;;;;;;;14.70;12.43;;;;;;;13.93;63.85;95479.28;5049867;28;20529;-70
2021/09/21 00:36:41;;;;;;;15.30;12.83;;;;;;;14.11;63.36;95470.84;5049538;28;21033;-71
2021/09/21 00:39:11;;;;;;;15.70;12.43;;;;;;;14.16;63.15;95468.22;5050594;28;20439;-69
2021/09/21 00:41:39;;;;;;;14.57;12.20;;;;;;;14.24;62.52;95475.59;5052324;28;20824;-67
2021/09/21 00:44:07;;;;;;;15.20;11.83;;;;;;;14.23;62.47;95474.03;5054312;28;20901;-70
2021/09/21 00:46:35;;;;;;;14.63;11.67;;;;;;;14.06;62.56;95447.94;5050691;28;20435;-70
2021/09/21 00:49:02;;;;;;;14.57;11.87;;;;;;;14.19;63.06;95457.16;5046479;28;20944;-70
2021/09/21 00:51:29;;;;;;;15.20;11.17;;;;;;;14.29;61.90;95473.00;5049846;28;20561;-70
2021/09/21 00:53:58;;;;;;;13.83;11.60;;;;;;;14.11;62.10;95465.59;5049466;28;20471;-70
2021/09/21 00:56:25;;;;;;;13.43;10.87;;;;;;;14.23;62.55;95489.84;5049887;28;20455;-69
2021/09/21 00:58:52;;;;;;;12.50;10.73;;;;;;;14.36;61.39;95483.28;5050180;28;20822;-68
2021/09/21 01:01:19;;;;;;;13.60;10.70;;;;;;;14.21;61.99;95479.56;5036497;28;20450;-69
2021/09/21 01:03:46;;;;;;;12.40;11.00;;;;;;;14.11;62.68;95484.03;5048887;28;20431;-70
2021/09/21 01:06:13;;;;;;;13.03;11.10;;;;;;;14.02;62.26;95462.69;5049628;28;20451;-69
2021/09/21 01:08:41;;;;;;;12.90;11.50;;;;;;;14.29;61.83;95456.41;5049517;28;20443;-70
2021/09/21 01:11:12;;;;;;;12.50;11.10;;;;;;;14.37;61.99;95476.97;5052960;28;20650;-69
2021/09/21 01:13:40;;;;;;;13.20;10.87;;;;;;;14.23;61.58;95468.78;5053279;28;20442;-69
2021/09/21 01:16:08;;;;;;;12.23;10.40;;;;;;;14.27;61.97;95472.47;5053047;28;20441;-68
2021/09/21 01:18:35;;;;;;;13.07;11.17;;;;;;;14.29;62.11;95478.28;5050013;28;20443;-68
2021/09/21 01:21:08;;;;;;;11.93;10.33;;;;;;;14.28;61.74;95476.69;5040795;28;20435;-68
2021/09/21 01:23:47;;;;;;;12.20;10.27;;;;;;;14.20;62.47;95470.06;5053359;28;20554;-68
2021/09/21 01:26:16;;;;;;;13.33;10.17;;;;;;;14.22;61.88;95473.25;5052844;28;20450;-67
2021/09/21 01:28:44;;;;;;;11.60;9.60;;;;;;;14.16;62.16;95473.50;5053380;28;20446;-68
2021/09/21 01:31:12;;;;;;;10.90;9.47;;;;;;;13.96;62.34;95469.00;5053046;28;20478;-70
2021/09/21 01:33:49;;;;;;;11.40;10.17;;;;;;;14.10;62.01;95474.56;5053571;28;20447;-67
2021/09/21 01:36:17;;;;;;;11.33;9.10;;;;;;;13.97;62.68;95465.31;5053037;28;20828;-68
2021/09/21 01:38:45;;;;;;;11.83;9.60;;;;;;;14.03;62.64;95474.03;5061969;28;20472;-67
2021/09/21 01:41:12;;;;;;;11.77;9.90;;;;;;;13.86;62.98;95463.75;5063942;28;20445;-69
2021/09/21 01:43:42;;;;;;;11.30;9.40;;;;;;;13.77;63.23;95464.50;5062893;28;20449;-69
2021/09/21 01:46:10;;;;;;;10.67;8.93;;;;;;;13.66;63.12;95468.97;5058672;28;20447;-70
2021/09/21 01:48:37;;;;;;;11.90;9.83;;;;;;;13.84;63.13;95454.50;5056557;28;20438;-69
2021/09/21 01:51:07;;;;;;;12.23;9.70;;;;;;;13.93;63.05;95474.81;5050422;28;20486;-70
2021/09/21 01:53:42;;;;;;;11.40;10.13;;;;;;;13.91;62.45;95481.38;5041911;28;20474;-70
2021/09/21 01:58:55;;;;;;;10.83;9.07;;;;;;;13.97;62.84;95482.97;5049799;28;20449;-70
2021/09/21 02:01:25;;;;;;;16.10;9.87;;;;;;;14.06;63.12;95476.13;5039408;28;20432;-70
2021/09/21 02:03:55;;;;;;;12.17;9.50;;;;;;;13.86;63.05;95476.09;5053173;28;20430;-70
2021/09/21 02:06:35;;;;;;;10.40;9.27;;;;;;;14.01;62.83;95476.13;5050006;28;20469;-71
2021/09/21 02:09:04;;;;;;;10.07;8.63;;;;;;;13.77;63.35;95475.03;5039054;28;20438;-69
2021/09/21 02:11:32;;;;;;;10.77;8.50;;;;;;;13.78;63.40;95479.25;5052784;28;20528;-68
2021/09/21 02:14:00;;;;;;;12.07;8.63;;;;;;;13.62;63.52;95482.91;5052592;28;20443;-68
2021/09/21 02:16:29;;;;;;;11.27;8.37;;;;;;;13.62;63.31;95481.06;5051995;28;20442;-70
2021/09/21 02:18:57;;;;;;;10.00;8.90;;;;;;;13.79;62.59;95475.56;5049734;28;20561;-68
2021/09/21 02:21:24;;;;;;;12.17;7.70;;;;;;;13.83;62.48;95489.81;5050935;28;20951;-69
2021/09/21 02:23:52;;;;;;;10.73;8.60;;;;;;;13.74;62.50;95499.28;5052125;28;20889;-71
2021/09/21 02:26:19;;;;;;;9.53;7.57;;;;;;;13.62;62.72;95493.44;5052503;28;20443;-70
2021/09/21 02:28:46;;;;;;;9.17;7.50;;;;;;;13.51;63.55;95486.53;5052826;28;20434;-68
2021/09/21 02:31:14;;;;;;;10.17;8.10;;;;;;;13.82;62.89;95496.13;5051998;28;20482;-70
2021/09/21 02:33:41;;;;;;;8.97;8.03;;;;;;;13.90;62.49;95487.72;5052233;28;20866;-69
2021/09/21 02:36:08;;;;;;;9.93;8.47;;;;;;;14.10;61.94;95477.19;5051461;28;20480;-68
2021/09/21 02:38:36;;;;;;;10.60;9.07;;;;;;;14.11;61.96;95502.47;5052241;28;21012;-69
2021/09/21 02:41:05;;;;;;;13.07;8.97;;;;;;;13.84;62.73;95491.38;5051115;28;20987;-69
2021/09/21 02:43:32;;;;;;;9.87;8.70;;;;;;;14.05;62.01;95498.28;5052137;28;20435;-67
2021/09/21 02:46:01;;;;;;;10.63;8.50;;;;;;;13.93;62.01;95490.63;5051412;28;20451;-69
2021/09/21 02:48:32;;;;;;;12.47;8.37;;;;;;;13.98;62.60;95498.53;5051439;28;20985;-70
2021/09/21 02:51:00;;;;;;;11.00;9.63;;;;;;;13.88;62.79;95498.50;5049194;28;20474;-68
2021/09/21 02:53:26;;;;;;;10.50;8.53;;;;;;;13.84;62.77;95512.44;5051493;28;20475;-70
2021/09/21 02:55:53;;;;;;;10.53;8.00;;;;;;;13.99;62.10;95499.31;5057416;28;20530;-69
2021/09/21 02:58:20;;;;;;;10.00;8.30;;;;;;;14.16;62.25;95510.38;5058307;28;20451;-68
2021/09/21 03:00:51;;;;;;;9.33;8.00;;;;;;;13.97;61.47;95490.88;5048178;28;20436;-69
2021/09/21 03:03:19;;;;;;;9.97;7.57;;;;;;;14.01;62.31;95513.03;5046655;28;20850;-69
2021/09/21 03:05:53;;;;;;;15.00;8.10;;;;;;;14.17;62.42;95517.25;5051640;28;20462;-69
2021/09/21 03:08:22;;;;;;;8.53;7.63;;;;;;;14.30;61.62;95516.78;5045931;28;20448;-67
2021/09/21 03:11:25;;;;;;;9.30;7.80;;;;;;;14.11;62.17;95527.00;5050840;28;20474;-68
2021/09/21 03:18:58;;;;;;;9.03;8.13;;;;;;;13.71;62.91;95544.53;5048909;28;20465;-67
2021/09/21 03:21:25;;;;;;;9.07;7.67;;;;;;;13.96;62.54;95555.16;5050018;28;20439;-69
2021/09/21 03:23:52;;;;;;;8.47;7.07;;;;;;;14.12;61.99;95557.56;5051333;28;20827;-70
2021/09/21 03:26:20;;;;;;;9.23;7.17;;;;;;;14.28;61.16;95566.31;5049447;28;20753;-69
2021/09/21 03:28:47;;;;;;;8.37;6.87;;;;;;;13.97;61.75;95559.38;5049984;28;21383;-69
2021/09/21 03:31:14;;;;;;;8.43;6.93;;;;;;;13.88;62.16;95564.38;5057006;28;20490;-69
2021/09/21 03:33:41;;;;;;;7.77;6.97;;;;;;;13.92;61.91;95564.66;5053563;28;20451;-69
2021/09/21 03:36:11;;;;;;;9.00;7.07;;;;;;;13.88;61.49;95566.22;5056756;28;20450;-71
2021/09/21 03:38:38;;;;;;;11.13;7.50;;;;;;;13.95;62.19;95569.38;5058089;28;20439;-68
2021/09/21 03:41:05;;;;;;;7.77;6.73;;;;;;;13.72;62.04;95568.00;5055195;28;20443;-68
2021/09/21 03:43:32;;;;;;;9.07;7.50;;;;;;;13.68;62.96;95566.16;5053748;28;20455;-68
2021/09/21 03:45:59;;;;;;;10.03;7.57;;;;;;;13.47;63.04;95577.63;5050076;28;20445;-67
2021/09/21 03:48:26;;;;;;;10.67;7.40;;;;;;;13.60;62.90;95580.59;5050760;28;20451;-67
2021/09/21 03:50:52;;;;;;;9.63;7.47;;;;;;;13.57;63.34;95585.59;5050413;28;21096;-67
2021/09/21 03:53:19;;;;;;;8.50;7.30;;;;;;;13.29;63.54;95575.44;5050288;28;21021;-71
2021/09/21 03:55:46;;;;;;;9.30;7.20;;;;;;;13.48;63.60;95581.84;5046503;28;20447;-69
2021/09/21 03:58:57;;;;;;;9.77;7.97;;;;;;;14.19;60.53;95570.50;5042905;27;21023;-69
2021/09/21 04:01:24;;;;;;;9.63;7.20;;;;;;;14.39;60.05;95577.69;5029437;28;20451;-69
2021/09/21 04:03:51;;;;;;;8.53;7.40;;;;;;;14.22;61.08;95567.34;5040478;28;20436;-70
2021/09/21 04:06:18;;;;;;;8.23;7.13;;;;;;;14.07;61.32;95583.09;5027452;28;20567;-69
2021/09/21 04:08:45;;;;;;;10.50;7.20;;;;;;;13.98;61.60;95579.41;5027833;28;20795;-69
2021/09/21 04:11:12;;;;;;;7.73;6.80;;;;;;;13.95;61.15;95587.84;5026701;28;20938;-72
2021/09/21 04:13:40;;;;;;;8.27;6.67;;;;;;;13.91;61.66;95581.50;5026805;28;20440;-69
2021/09/21 04:16:07;;;;;;;8.37;7.10;;;;;;;13.92;61.75;95578.59;5025761;28;20456;-68
2021/09/21 04:18:34;;;;;;;10.83;6.50;;;;;;;14.03;60.58;95580.22;5015142;28;20882;-69
2021/09/21 04:21:02;;;;;;;8.67;6.77;;;;;;;14.04;61.38;95575.72;5021779;28;20448;-66
2021/09/21 04:23:29;;;;;;;8.57;7.00;;;;;;;13.92;61.20;95572.56;5026416;28;20784;-67
2021/09/21 04:25:56;;;;;;;9.73;6.67;;;;;;;14.08;60.98;95576.81;5019847;28;20448;-68
2021/09/21 04:28:23;;;;;;;10.97;6.83;;;;;;;14.18;60.42;95579.44;5026948;28;20436;-68
2021/09/21 04:30:52;;;;;;;8.23;6.03;;;;;;;14.19;60.02;95573.13;5026499;28;20450;-69
2021/09/21 04:33:20;;;;;;;8.03;7.03;;;;;;;13.94;60.50;95559.91;5034151;28;21661;-69
2021/09/21 04:35:47;;;;;;;7.67;6.87;;;;;;;14.04;60.69;95575.72;5026967;28;20439;-68
2021/09/21 04:38:14;;;;;;;8.03;7.10;;;;;;;13.94;60.61;95573.09;5026220;28;20490;-67
2021/09/21 04:40:40;;;;;;;19.77;17.60;;;;;;;14.03;61.17;95576.81;5024645;28;20446;-69
2021/09/21 04:43:07;;;;;;;35.67;27.57;;;;;;;13.95;61.47;95567.56;5025642;28;20809;-71
2021/09/21 04:45:37;;;;;;;10.77;9.67;;;;;;;13.88;61.69;95571.47;5026600;28;20443;-69
2021/09/21 04:48:05;;;;;;;15.20;8.10;;;;;;;13.92;60.90;95575.19;5020973;28;20444;-68
2021/09/21 04:50:31;;;;;;;8.27;7.07;;;;;;;14.07;60.81;95567.28;5026978;28;20818;-66
2021/09/21 04:52:58;;;;;;;8.83;7.40;;;;;;;14.35;60.26;95571.34;5026314;28;20570;-67
2021/09/21 04:55:25;;;;;;;9.83;6.87;;;;;;;13.87;61.57;95575.94;5021729;28;20452;-68
2021/09/21 04:57:52;;;;;;;8.70;7.77;;;;;;;13.77;61.88;95585.66;5023402;28;20492;-67
2021/09/21 05:00:19;;;;;;;9.23;7.10;;;;;;;13.48;62.80;95587.13;5022559;28;20988;-67
2021/09/21 05:02:46;;;;;;;10.07;7.23;;;;;;;13.66;62.39;95591.94;5025873;28;20487;-66
2021/09/21 05:05:13;;;;;;;8.93;7.23;;;;;;;13.67;62.52;95596.16;5021652;28;20540;-67
2021/09/21 05:07:40;;;;;;;28.90;22.50;;;;;;;13.59;62.48;95596.66;5035734;28;20929;-68
2021/09/21 05:10:08;;;;;;;36.43;32.53;;;;;;;13.59;62.75;95599.28;5005533;28;20451;-66
2021/09/21 05:12:35;;;;;;;9.20;7.20;;;;;;;13.52;62.34;95596.09;5012133;28;20450;-67
2021/09/21 05:15:03;;;;;;;8.53;6.90;;;;;;;13.39;62.46;95593.91;5012729;28;20476;-67
2021/09/21 05:17:30;;;;;;;8.97;7.03;;;;;;;13.45;62.70;95598.19;5006345;28;20476;-66
2021/09/21 05:19:57;;;;;;;20.57;15.10;;;;;;;13.51;62.39;95603.19;5021341;28;20451;-66
2021/09/21 05:22:24;;;;;;;14.07;10.63;;;;;;;13.63;61.88;95600.38;5012105;28;20436;-63
2021/09/21 05:24:53;;;;;;;11.73;7.47;;;;;;;13.72;61.96;95604.09;5011575;28;20453;-66
2021/09/21 05:27:21;;;;;;;8.57;7.40;;;;;;;13.79;61.00;95604.63;5015360;28;20848;-66
2021/09/21 05:29:47;;;;;;;8.57;7.23;;;;;;;13.93;60.59;95618.91;5008640;28;20536;-64
2021/09/21 05:32:14;;;;;;;9.73;7.03;;;;;;;13.68;61.03;95618.81;5014014;28;20437;-67
2021/09/21 05:34:42;;;;;;;12.50;7.53;;;;;;;13.73;61.01;95595.13;5010444;28;20831;-64
2021/09/21 05:37:09;;;;;;;11.37;7.20;;;;;;;14.03;60.96;95632.13;5022495;28;20452;-69
2021/09/21 05:39:36;;;;;;;8.27;7.27;;;;;;;13.84;60.37;95623.09;5014232;28;20445;-62
2021/09/21 05:42:03;;;;;;;8.93;8.03;;;;;;;14.11;60.38;95624.50;5012280;28;20893;-65
2021/09/21 05:44:29;;;;;;;11.87;10.37;;;;;;;13.92;60.41;95635.78;5007422;28;20543;-63
2021/09/21 05:46:56;;;;;;;13.00;10.73;;;;;;;14.18;61.06;95629.53;5011749;28;20886;-66
2021/09/21 05:49:23;;;;;;;11.30;9.40;;;;;;;14.30;59.97;95638.03;5016310;28;20938;-66
2021/09/21 05:51:50;;;;;;;14.33;10.87;;;;;;;13.97;59.97;95641.06;5006938;28;20531;-65
2021/09/21 05:54:21;;;;;;;12.00;7.93;;;;;;;13.80;61.35;95648.34;5012314;28;20464;-68
2021/09/21 05:56:48;;;;;;;8.07;7.27;;;;;;;14.13;60.74;95648.78;5011612;28;20476;-64
2021/09/21 05:59:15;;;;;;;8.97;8.03;;;;;;;14.33;60.00;95648.06;5007252;28;20488;-66
2021/09/21 06:01:41;;;;;;;11.07;7.97;;;;;;;13.75;60.95;95646.50;4995444;28;20446;-64
2021/09/21 06:04:10;;;;;;;8.83;7.83;;;;;;;13.84;61.38;95652.06;5000196;28;20903;-66
2021/09/21 06:06:38;;;;;;;11.53;8.30;;;;;;;14.19;60.63;95655.66;5011671;28;20507;-67
2021/09/21 06:09:05;;;;;;;15.57;8.67;;;;;;;14.19;60.27;95646.94;5012095;28;20566;-64
2021/09/21 06:11:34;;;;;;;11.20;8.33;;;;;;;14.24;60.91;95657.50;5011334;28;21294;-66
2021/09/21 06:14:02;;;;;;;11.43;9.20;;;;;;;14.21;60.04;95652.75;5011758;28;20437;-63
2021/09/21 06:16:30;;;;;;;11.73;8.80;;;;;;;13.89;60.79;95641.53;5011396;28;20500;-64
2021/09/21 06:18:57;;;;;;;9.80;8.60;;;;;;;14.12;59.85;95662.22;5011544;28;20578;-64
2021/09/21 06:21:25;;;;;;;11.13;8.40;;;;;;;13.69;60.90;95652.00;5010353;28;20437;-65
2021/09/21 06:23:52;;;;;;;10.13;9.00;;;;;;;14.04;60.30;95667.97;5011002;28;21267;-63
2021/09/21 06:26:19;;;;;;;10.33;8.10;;;;;;;13.82;60.57;95664.69;5011312;28;20812;-65
2021/09/21 06:28:46;;;;;;;11.63;9.07;;;;;;;14.17;59.97;95675.41;5011522;28;20453;-65
2021/09/21 06:31:13;;;;;;;9.83;8.67;;;;;;;14.18;60.19;95663.78;5010502;28;20451;-66
2021/09/21 06:33:40;;;;;;;10.80;8.33;;;;;;;13.98;59.63;95676.88;5011193;28;20524;-66
2021/09/21 06:36:08;;;;;;;10.80;8.40;;;;;;;14.01;60.09;95677.16;5010704;28;20481;-64
2021/09/21 06:38:37;;;;;;;13.10;9.33;;;;;;;14.35;59.36;95688.13;5011060;28;20515;-69
2021/09/21 06:41:05;;;;;;;9.57;8.60;;;;;;;14.41;59.08;95681.84;5010161;28;20452;-64
2021/09/21 06:43:33;;;;;;;13.20;9.97;;;;;;;14.29;58.93;95681.25;5011331;28;20455;-64
2021/09/21 06:46:00;;;;;;;11.43;9.47;;;;;;;14.20;58.58;95674.88;5011449;28;20495;-65
2021/09/21 06:48:28;;;;;;;14.40;10.20;;;;;;;14.18;58.95;95682.25;5008940;28;20827;-64
2021/09/21 06:50:55;;;;;;;14.70;9.83;;;;;;;14.31;58.62;95702.09;5003432;28;20475;-66
2021/09/21 06:53:22;;;;;;;13.40;9.23;;;;;;;14.03;59.09;95690.88;5012872;28;20946;-63
2021/09/21 06:55:49;;;;;;;10.93;9.73;;;;;;;13.91;59.76;95686.88;5015765;28;20491;-64
2021/09/21 06:58:16;;;;;;;10.37;9.27;;;;;;;14.09;59.43;95689.88;5011987;28;20488;-66
2021/09/21 07:00:46;;;;;;;15.53;10.70;;;;;;;14.17;59.50;95699.13;5003939;28;20516;-66
2021/09/21 07:03:13;;;;;;;12.10;9.77;;;;;;;14.31;58.75;95702.88;4991005;28;20441;-65
2021/09/21 07:05:41;;;;;;;11.10;9.70;;;;;;;14.30;58.56;95695.25;5014572;28;20474;-65
2021/09/21 07:08:08;;;;;;;11.60;10.10;;;;;;;14.25;58.86;95703.88;5020725;28;20475;-64
2021/09/21 07:10:35;;;;;;;14.77;9.70;;;;;;;14.00;58.93;95693.25;5011054;28;20448;-65
2021/09/21 07:13:03;;;;;;;13.03;10.23;;;;;;;14.20;58.89;95707.31;5009880;28;20472;-64
2021/09/21 07:15:29;;;;;;;14.03;11.53;;;;;;;14.35;58.79;95709.22;5010438;28;20873;-66
2021/09/21 07:17:56;;;;;;;11.87;10.67;;;;;;;14.07;59.19;95712.25;5010035;28;20481;-64
2021/09/21 07:20:25;;;;;;;13.90;10.20;;;;;;;14.35;58.47;95706.59;5010562;28;20456;-65
2021/09/21 07:22:52;;;;;;;12.83;10.10;;;;;;;14.16;58.40;95708.06;5009636;28;20455;-66
2021/09/21 07:25:20;;;;;;;11.60;10.00;;;;;;;14.29;57.89;95707.63;5010427;28;20969;-65
2021/09/21 07:27:48;;;;;;;14.20;10.87;;;;;;;14.25;57.60;95709.16;5012013;28;20445;-67
2021/09/21 07:30:16;;;;;;;13.20;10.63;;;;;;;14.37;57.48;95722.94;5014410;28;20507;-66
2021/09/21 07:32:43;;;;;;;11.50;10.30;;;;;;;14.16;58.16;95694.88;5012412;28;21281;-64
2021/09/21 07:35:10;;;;;;;12.57;10.03;;;;;;;14.33;57.60;95721.88;5015144;28;20498;-65
2021/09/21 07:37:37;;;;;;;12.27;10.77;;;;;;;14.36;57.62;95716.06;5011909;28;20962;-64
2021/09/21 07:40:05;;;;;;;14.27;10.17;;;;;;;14.16;57.84;95731.78;5016982;28;20981;-65
2021/09/21 07:42:32;;;;;;;14.73;10.47;;;;;;;14.37;57.64;95727.44;5029932;28;20428;-64
2021/09/21 07:45:00;;;;;;;11.57;10.30;;;;;;;14.43;57.76;95726.41;5011267;28;20507;-66
2021/09/21 07:47:28;;;;;;;15.97;11.80;;;;;;;13.94;58.28;95725.91;5009871;28;20441;-65
2021/09/21 07:49:55;;;;;;;14.43;10.70;;;;;;;14.33;58.41;95745.59;5013357;28;20949;-65
2021/09/21 07:52:22;;;;;;;12.07;10.77;;;;;;;14.56;57.63;95741.75;5029271;28;20447;-64
2021/09/21 07:54:49;;;;;;;13.63;11.00;;;;;;;14.62;57.49;95746.75;5014389;28;20444;-65
2021/09/21 07:57:16;;;;;;;15.57;11.53;;;;;;;14.63;56.87;95753.63;5017775;28;20475;-64
2021/09/21 07:59:45;;;;;;;14.90;11.23;;;;;;;14.72;56.86;95725.69;5025845;28;20549;-65
2021/09/21 08:02:13;;;;;;;16.13;11.00;;;;;;;14.92;57.35;95736.28;4997343;28;20449;-64
2021/09/21 08:04:42;;;;;;;14.57;12.03;;;;;;;15.06;56.28;95752.41;5010078;28;20527;-64
2021/09/21 08:07:10;;;;;;;12.23;9.60;;;;;;;14.83;56.36;95747.63;5009317;28;20511;-66
2021/09/21 08:09:37;;;;;;;13.47;10.70;;;;;;;15.06;56.32;95758.47;5010455;28;20857;-66
2021/09/21 08:12:04;;;;;;;13.70;11.27;;;;;;;14.77;56.58;95754.72;5023528;28;20449;-65
2021/09/21 08:14:36;;;;;;;11.77;10.03;;;;;;;14.85;56.76;95767.41;5002276;28;20447;-65
2021/09/21 08:17:07;;;;;;;12.67;10.30;;;;;;;14.77;56.60;95760.00;5029243;28;20506;-65
2021/09/21 08:19:34;;;;;;;12.60;10.07;;;;;;;14.87;56.57;95764.53;5009859;28;20582;-65
2021/09/21 08:22:02;;;;;;;10.57;9.47;;;;;;;14.73;55.97;95774.75;5021372;28;20443;-64
2021/09/21 08:24:29;;;;;;;13.03;9.43;;;;;;;14.47;56.92;95774.94;5010915;28;20456;-64
2021/09/21 08:26:56;;;;;;;11.63;10.00;;;;;;;14.66;56.30;95773.41;5009735;28;20437;-64
2021/09/21 08:29:23;;;;;;;12.47;10.60;;;;;;;14.75;56.64;95761.31;5010033;28;20853;-65
2021/09/21 08:31:50;;;;;;;12.80;10.67;;;;;;;14.47;57.09;95761.75;5009719;28;20472;-65
2021/09/21 08:34:17;;;;;;;16.43;11.07;;;;;;;14.74;56.70;95768.44;5009549;28;20441;-65
2021/09/21 08:36:44;;;;;;;12.53;10.40;;;;;;;14.74;57.08;95760.53;5009414;28;21073;-65
2021/09/21 08:39:11;;;;;;;12.03;10.70;;;;;;;14.89;56.11;95757.91;5009734;28;20473;-64
2021/09/21 08:41:40;;;;;;;10.67;9.57;;;;;;;15.06;55.89;95753.19;5009171;28;20534;-63
2021/09/21 08:44:07;;;;;;;15.40;11.17;;;;;;;15.15;56.00;95750.81;5011141;28;20487;-64
2021/09/21 08:46:34;;;;;;;10.83;9.73;;;;;;;15.19;55.80;95747.41;5012838;28;20449;-64
2021/09/21 08:49:01;;;;;;;10.87;8.57;;;;;;;15.24;54.78;95741.31;5013374;28;20908;-64
2021/09/21 08:51:28;;;;;;;10.10;9.10;;;;;;;14.73;55.22;95743.09;5013111;28;20436;-65
2021/09/21 08:53:55;;;;;;;9.77;8.50;;;;;;;14.95;54.75;95740.25;5012850;28;20440;-65
2021/09/21 08:56:22;;;;;;;11.30;7.60;;;;;;;14.96;54.24;95747.91;5012771;28;20498;-64
2021/09/21 08:58:57;;;;;;;12.47;8.80;;;;;;;15.10;55.03;95727.06;5013008;28;20533;-64
2021/09/21 09:01:24;;;;;;;11.07;8.83;;;;;;;15.34;53.22;95753.75;4999563;28;20453;-64
2021/09/21 09:03:56;;;;;;;9.93;8.53;;;;;;;15.67;54.42;95743.47;5012366;28;20444;-64
2021/09/21 09:06:24;;;;;;;10.37;8.20;;;;;;;15.75;51.79;95734.19;5021849;28;20489;-65
2021/09/21 09:08:51;;;;;;;11.27;8.10;;;;;;;15.98;52.04;95749.50;5031214;28;20539;-64
2021/09/21 09:11:23;;;;;;;11.63;7.70;;;;;;;16.14;52.44;95745.75;5012164;28;20437;-67
2021/09/21 09:13:56;;;;;;;10.20;6.10;;;;;;;16.28;49.86;95748.63;5012437;28;20451;-65
2021/09/21 09:16:36;;;;;;;7.53;6.60;;;;;;;16.59;50.06;95748.25;5012733;28;20811;-64
2021/09/21 09:19:08;;;;;;;8.67;7.27;;;;;;;16.67;50.32;95741.59;5012729;28;21048;-65
2021/09/21 09:21:38;;;;;;;9.40;7.00;;;;;;;16.86;49.88;95740.69;5020753;28;20447;-66
2021/09/21 09:24:08;;;;;;;8.77;7.10;;;;;;;16.96;50.19;95740.66;5034141;28;20493;-64
2021/09/21 09:26:41;;;;;;;8.40;7.13;;;;;;;16.55;49.81;95744.56;5023073;28;20468;-64
2021/09/21 09:29:12;;;;;;;8.97;7.20;;;;;;;16.80;49.47;95746.28;5021307;28;20923;-64
2021/09/21 09:31:40;;;;;;;9.57;6.97;;;;;;;16.97;50.53;95747.50;5016430;28;20880;-64
2021/09/21 09:34:25;;;;;;;9.13;6.67;;;;;;;17.38;49.78;95749.88;5013314;28;20445;-64
2021/09/21 09:36:59;;;;;;;10.13;6.90;;;;;;;17.42;47.81;95749.06;5000206;28;20449;-65
2021/09/21 09:39:29;;;;;;;8.60;7.20;;;;;;;17.46;47.52;95730.75;4998331;28;20517;-65
2021/09/21 09:41:58;;;;;;;7.50;6.70;;;;;;;17.40;47.45;95755.69;5004449;28;20464;-66
2021/09/21 09:44:29;;;;;;;6.83;5.87;;;;;;;18.05;46.56;95752.47;4992569;28;20450;-65
2021/09/21 09:47:03;;;;;;;8.47;6.83;;;;;;;18.23;46.64;95745.69;4992256;28;20825;-65
2021/09/21 09:49:33;;;;;;;9.13;6.90;;;;;;;18.37;46.27;95744.72;5006257;28;20479;-66
2021/09/21 09:52:15;;;;;;;7.90;7.07;;;;;;;18.74;46.97;95736.84;5011982;28;20452;-64
2021/09/21 09:54:46;;;;;;;7.20;6.50;;;;;;;18.89;45.26;95736.63;5011424;28;20600;-64
2021/09/21 09:57:17;;;;;;;7.00;6.30;;;;;;;19.10;44.44;95729.94;5004019;28;20485;-64
2021/09/21 09:59:44;;;;;;;6.40;5.80;;;;;;;19.44;43.86;95731.59;5005832;28;20859;-64
2021/09/21 10:02:12;;;;;;;6.57;5.77;;;;;;;19.48;42.71;95744.03;4998130;28;20467;-63
2021/09/21 10:04:41;;;;;;;5.80;5.27;;;;;;;19.35;43.40;95728.03;5011950;28;20486;-64
2021/09/21 10:07:09;;;;;;;5.77;5.27;;;;;;;19.61;43.08;95745.16;5025029;28;20201;-65
2021/09/21 10:09:37;;;;;;;5.83;4.03;;;;;;;19.78;41.11;95738.19;5019344;28;20621;-65
2021/09/21 10:12:05;;;;;;;5.03;4.53;;;;;;;19.64;40.36;95739.25;5031080;28;20212;-66
2021/09/21 10:14:32;;;;;;;6.67;5.00;;;;;;;19.92;41.39;95731.06;5012011;28;20193;-64
2021/09/21 10:17:05;;;;;;;5.30;4.80;;;;;;;20.16;41.47;95728.22;5011006;28;20194;-65
2021/09/21 10:19:35;;;;;;;5.87;4.23;;;;;;;20.43;41.17;95730.91;5011527;28;20210;-65
2021/09/21 10:22:03;;;;;;;4.80;4.40;;;;;;;20.08;39.92;95736.88;5011027;28;20192;-66
2021/09/21 10:24:30;;;;;;;5.17;4.57;;;;;;;20.13;41.57;95734.09;5011136;28;20675;-64
2021/09/21 10:27:04;;;;;;;7.23;5.13;;;;;;;20.37;40.83;95734.75;5010973;28;20205;-65
2021/09/21 10:29:31;;;;;;;6.47;4.43;;;;;;;20.15;39.81;95729.28;5011124;28;20679;-65
2021/09/21 10:32:11;;;;;;;8.53;5.00;;;;;;;20.31;40.67;95729.84;5010373;28;20577;-65
2021/09/21 10:34:46;;;;;;;9.03;4.70;;;;;;;20.06;39.90;95728.38;5011072;28;20209;-66
2021/09/21 10:37:16;;;;;;;5.43;4.60;;;;;;;19.73;40.93;95729.50;5010912;28;20197;-63
2021/09/21 10:39:43;;;;;;;5.23;4.73;;;;;;;20.01;41.32;95726.63;5010993;28;20930;-64
2021/09/21 10:42:21;;;;;;;5.10;4.43;;;;;;;20.15;40.92;95731.94;5010448;28;20201;-66
2021/09/21 10:44:54;;;;;;;5.07;4.57;;;;;;;19.11;41.48;95723.56;5011307;28;20205;-65
2021/09/21 10:47:30;;;;;;;4.87;4.37;;;;;;;19.70;41.22;95722.13;5011042;28;20218;-65
2021/09/21 10:50:12;;;;;;;5.57;4.67;;;;;;;19.37;40.60;95736.50;5010765;28;20742;-66
2021/09/21 10:52:39;;;;;;;6.27;4.63;;;;;;;19.91;41.71;95733.97;5022898;28;20586;-65
2021/09/21 10:55:09;;;;;;;6.33;4.57;;;;;;;19.81;39.98;95728.84;5013927;28;20204;-66
2021/09/21 10:57:40;;;;;;;9.37;4.40;;;;;;;20.17;42.21;95735.13;5010706;28;20245;-65
2021/09/21 11:00:09;;;;;;;4.83;3.97;;;;;;;20.39;40.85;95727.25;5010342;28;20781;-65
2021/09/21 11:02:48;;;;;;;4.77;4.10;;;;;;;20.06;41.83;95721.22;5001020;28;20213;-63
2021/09/21 11:05:19;;;;;;;5.37;4.47;;;;;;;19.79;40.86;95720.38;4994146;28;20236;-65
2021/09/21 11:07:51;;;;;;;4.67;4.17;;;;;;;19.48;41.00;95714.00;4996715;28;20197;-66
2021/09/21 11:10:18;;;;;;;8.17;5.20;;;;;;;20.03;41.32;95707.72;5010733;28;20212;-66
2021/09/21 11:12:50;;;;;;;5.83;4.57;;;;;;;20.21;41.44;95704.19;5010081;28;20205;-64
2021/09/21 11:15:21;;;;;;;8.50;4.67;;;;;;;19.96;41.21;95713.41;5010937;28;20303;-65
2021/09/21 11:17:48;;;;;;;4.90;4.40;;;;;;;20.07;41.70;95714.03;5009792;28;20208;-65
2021/09/21 11:20:15;;;;;;;4.30;3.90;;;;;;;20.06;40.19;95707.91;5010937;28;20223;-66
2021/09/21 11:22:49;;;;;;;6.00;4.20;;;;;;;20.60;41.43;95691.13;5024795;28;20201;-65
2021/09/21 11:25:16;;;;;;;5.53;4.30;;;;;;;20.74;40.46;95699.09;5014365;28;20204;-63
2021/09/21 11:27:43;;;;;;;4.97;4.00;;;;;;;20.25;39.85;95688.41;5013318;28;20662;-64
2021/09/21 11:30:15;;;;;;;5.17;4.20;;;;;;;20.89;40.27;95696.13;5014124;28;20259;-64
2021/09/21 11:32:43;;;;;;;4.50;4.10;;;;;;;20.69;39.46;95688.56;5012840;28;20534;-65
2021/09/21 11:35:16;;;;;;;3.63;3.33;;;;;;;20.63;39.39;95687.09;5010444;28;20197;-64
2021/09/21 11:37:46;;;;;;;4.30;3.70;;;;;;;20.76;39.79;95684.41;5023441;28;20208;-65
2021/09/21 11:40:25;;;;;;;3.80;3.50;;;;;;;20.86;40.25;95678.84;5010161;28;20233;-64
2021/09/21 11:42:52;;;;;;;4.83;3.60;;;;;;;20.99;38.71;95683.38;5009552;28;20587;-65